sensor_id;sensor_type;location;lat;lon;timestamp;P1;durP1;ratioP1;P2;durP2;ratioP2
29686;SDS011;16599;47.078;15.536;2023-05-10T00:00:21;13.48;;;7.43;;
29686;SDS011;16599;47.078;15.536;2023-05-10T00:02:49;14.50;;;9.18;;
29686;SDS011;16599;47.078;15.536;2023-05-10T00:05:17;12.90;;;8.13;;
29686;SDS011;16599;47.078;15.536;2023-05-10T00:07:44;19.50;;;9.07;;
29686;SDS011;16599;47.078;15.536;2023-05-10T00:10:11;18.67;;;8.80;;
29686;SDS011;16599;47.078;15.536;2023-05-10T00:12:38;14.45;;;8.30;;
29686;SDS011;16599;47.078;15.536;2023-05-10T00:15:05;16.95;;;8.05;;
29686;SDS011;16599;47.078;15.536;2023-05-10T00:17:32;16.35;;;7.97;;
29686;SDS011;16599;47.078;15.536;2023-05-10T00:19:59;10.57;;;7.07;;
29686;SDS011;16599;47.078;15.536;2023-05-10T00:22:26;13.13;;;7.03;;
29686;SDS011;16599;47.078;15.536;2023-05-10T00:24:53;12.50;;;7.80;;
29686;SDS011;16599;47.078;15.536;2023-05-10T00:27:20;13.85;;;6.93;;
29686;SDS011;16599;47.078;15.536;2023-05-10T00:29:47;13.48;;;7.30;;
29686;SDS011;16599;47.078;15.536;2023-05-10T00:32:13;11.07;;;6.78;;
29686;SDS011;16599;47.078;15.536;2023-05-10T00:34:40;9.88;;;6.05;;
29686;SDS011;16599;47.078;15.536;2023-05-10T00:37:07;8.98;;;6.43;;
29686;SDS011;16599;47.078;15.536;2023-05-10T00:39:34;13.45;;;6.90;;
29686;SDS011;16599;47.078;15.536;2023-05-10T00:42:01;15.65;;;6.55;;
29686;SDS011;16599;47.078;15.536;2023-05-10T00:44:28;14.52;;;8.15;;
29686;SDS011;16599;47.078;15.536;2023-05-10T00:46:54;15.07;;;8.98;;
29686;SDS011;16599;47.078;15.536;2023-05-10T00:49:21;15.43;;;9.73;;
29686;SDS011;16599;47.078;15.536;2023-05-10T00:51:48;21.25;;;8.65;;
29686;SDS011;16599;47.078;15.536;2023-05-10T00:54:16;14.52;;;9.25;;
29686;SDS011;16599;47.078;15.536;2023-05-10T00:56:43;15.57;;;8.77;;
29686;SDS011;16599;47.078;15.536;2023-05-10T01:01:45;14.75;;;7.50;;
29686;SDS011;16599;47.078;15.536;2023-05-10T01:04:13;13.45;;;6.85;;
29686;SDS011;16599;47.078;15.536;2023-05-10T01:06:40;15.13;;;7.10;;
29686;SDS011;16599;47.078;15.536;2023-05-10T01:09:07;9.57;;;7.13;;
29686;SDS011;16599;47.078;15.536;2023-05-10T01:11:35;8.23;;;6.03;;
29686;SDS011;16599;47.078;15.536;2023-05-10T01:14:03;12.00;;;6.93;;
29686;SDS011;16599;47.078;15.536;2023-05-10T01:16:38;16.42;;;7.30;;
29686;SDS011;16599;47.078;15.536;2023-05-10T01:19:10;10.98;;;7.13;;
29686;SDS011;16599;47.078;15.536;2023-05-10T01:22:04;16.33;;;7.38;;
29686;SDS011;16599;47.078;15.536;2023-05-10T01:27:47;12.88;;;7.78;;
29686;SDS011;16599;47.078;15.536;2023-05-10T01:32:57;11.63;;;7.68;;
29686;SDS011;16599;47.078;15.536;2023-05-10T01:38:31;12.48;;;8.10;;
29686;SDS011;16599;47.078;15.536;2023-05-10T01:41:17;10.45;;;7.40;;
29686;SDS011;16599;47.078;15.536;2023-05-10T01:47:01;16.08;;;7.78;;
29686;SDS011;16599;47.078;15.536;2023-05-10T01:49:39;17.75;;;8.00;;
29686;SDS011;16599;47.078;15.536;2023-05-10T01:52:10;16.65;;;8.00;;
29686;SDS011;16599;47.078;15.536;2023-05-10T01:54:41;15.95;;;7.90;;
29686;SDS011;16599;47.078;15.536;2023-05-10T01:57:15;12.43;;;7.68;;
29686;SDS011;16599;47.078;15.536;2023-05-10T01:59:46;15.97;;;7.70;;
29686;SDS011;16599;47.078;15.536;2023-05-10T02:02:17;12.90;;;7.25;;
29686;SDS011;16599;47.078;15.536;2023-05-10T02:04:47;12.90;;;8.15;;
29686;SDS011;16599;47.078;15.536;2023-05-10T02:07:16;15.70;;;8.52;;
29686;SDS011;16599;47.078;15.536;2023-05-10T02:09:44;12.25;;;7.32;;
29686;SDS011;16599;47.078;15.536;2023-05-10T02:12:15;13.93;;;7.72;;
29686;SDS011;16599;47.078;15.536;2023-05-10T02:14:43;11.43;;;7.10;;
29686;SDS011;16599;47.078;15.536;2023-05-10T02:17:11;15.70;;;7.35;;
29686;SDS011;16599;47.078;15.536;2023-05-10T02:19:40;13.63;;;7.93;;
29686;SDS011;16599;47.078;15.536;2023-05-10T02:22:08;15.55;;;7.47;;
29686;SDS011;16599;47.078;15.536;2023-05-10T02:24:36;9.75;;;6.95;;
29686;SDS011;16599;47.078;15.536;2023-05-10T02:27:04;11.70;;;7.10;;
29686;SDS011;16599;47.078;15.536;2023-05-10T02:29:33;10.63;;;7.07;;
29686;SDS011;16599;47.078;15.536;2023-05-10T02:32:00;12.00;;;7.57;;
29686;SDS011;16599;47.078;15.536;2023-05-10T02:34:28;15.40;;;7.47;;
29686;SDS011;16599;47.078;15.536;2023-05-10T02:36:57;10.07;;;6.47;;
29686;SDS011;16599;47.078;15.536;2023-05-10T02:39:25;11.80;;;8.18;;
29686;SDS011;16599;47.078;15.536;2023-05-10T02:41:54;12.65;;;7.85;;
29686;SDS011;16599;47.078;15.536;2023-05-10T02:44:23;14.15;;;7.70;;
29686;SDS011;16599;47.078;15.536;2023-05-10T02:46:52;11.20;;;7.82;;
29686;SDS011;16599;47.078;15.536;2023-05-10T02:49:22;11.05;;;7.13;;
29686;SDS011;16599;47.078;15.536;2023-05-10T02:51:50;13.90;;;7.20;;
29686;SDS011;16599;47.078;15.536;2023-05-10T02:54:24;11.93;;;7.00;;
29686;SDS011;16599;47.078;15.536;2023-05-10T02:56:56;14.40;;;7.18;;
29686;SDS011;16599;47.078;15.536;2023-05-10T02:59:26;11.75;;;7.50;;
29686;SDS011;16599;47.078;15.536;2023-05-10T03:01:53;11.60;;;7.40;;
29686;SDS011;16599;47.078;15.536;2023-05-10T03:04:20;12.20;;;6.70;;
29686;SDS011;16599;47.078;15.536;2023-05-10T03:06:47;13.45;;;7.85;;
29686;SDS011;16599;47.078;15.536;2023-05-10T03:09:14;20.45;;;9.80;;
29686;SDS011;16599;47.078;15.536;2023-05-10T03:14:26;11.40;;;7.05;;
29686;SDS011;16599;47.078;15.536;2023-05-10T03:19:53;15.73;;;9.93;;
29686;SDS011;16599;47.078;15.536;2023-05-10T03:22:32;15.32;;;8.65;;
29686;SDS011;16599;47.078;15.536;2023-05-10T03:25:06;14.27;;;9.30;;
29686;SDS011;16599;47.078;15.536;2023-05-10T03:27:39;15.15;;;9.07;;
29686;SDS011;16599;47.078;15.536;2023-05-10T03:30:10;18.20;;;8.45;;
29686;SDS011;16599;47.078;15.536;2023-05-10T03:32:38;12.80;;;8.15;;
29686;SDS011;16599;47.078;15.536;2023-05-10T03:35:06;12.07;;;7.43;;
29686;SDS011;16599;47.078;15.536;2023-05-10T03:37:34;17.92;;;8.10;;
29686;SDS011;16599;47.078;15.536;2023-05-10T03:40:02;15.18;;;7.38;;
29686;SDS011;16599;47.078;15.536;2023-05-10T03:42:29;15.90;;;8.75;;
29686;SDS011;16599;47.078;15.536;2023-05-10T03:44:56;12.90;;;8.23;;
29686;SDS011;16599;47.078;15.536;2023-05-10T03:47:23;13.75;;;7.95;;
29686;SDS011;16599;47.078;15.536;2023-05-10T03:49:49;19.27;;;8.25;;
29686;SDS011;16599;47.078;15.536;2023-05-10T03:52:16;12.48;;;7.20;;
29686;SDS011;16599;47.078;15.536;2023-05-10T03:54:44;13.07;;;7.32;;
29686;SDS011;16599;47.078;15.536;2023-05-10T03:57:11;10.13;;;7.00;;
29686;SDS011;16599;47.078;15.536;2023-05-10T03:59:37;11.45;;;7.45;;
29686;SDS011;16599;47.078;15.536;2023-05-10T04:02:05;10.65;;;7.25;;
29686;SDS011;16599;47.078;15.536;2023-05-10T04:04:32;12.02;;;7.55;;
29686;SDS011;16599;47.078;15.536;2023-05-10T04:06:58;13.57;;;7.95;;
29686;SDS011;16599;47.078;15.536;2023-05-10T04:09:25;11.20;;;7.80;;
29686;SDS011;16599;47.078;15.536;2023-05-10T04:11:52;13.27;;;8.85;;
29686;SDS011;16599;47.078;15.536;2023-05-10T04:14:19;14.73;;;9.48;;
29686;SDS011;16599;47.078;15.536;2023-05-10T04:16:46;14.80;;;10.02;;
29686;SDS011;16599;47.078;15.536;2023-05-10T04:19:12;11.82;;;8.02;;
29686;SDS011;16599;47.078;15.536;2023-05-10T04:21:39;14.25;;;7.63;;
29686;SDS011;16599;47.078;15.536;2023-05-10T04:24:06;15.13;;;8.60;;
29686;SDS011;16599;47.078;15.536;2023-05-10T04:26:33;16.45;;;8.63;;
29686;SDS011;16599;47.078;15.536;2023-05-10T04:29:00;17.17;;;8.57;;
29686;SDS011;16599;47.078;15.536;2023-05-10T04:31:27;14.57;;;9.02;;
29686;SDS011;16599;47.078;15.536;2023-05-10T04:33:54;16.58;;;7.85;;
29686;SDS011;16599;47.078;15.536;2023-05-10T04:36:21;15.00;;;8.90;;
29686;SDS011;16599;47.078;15.536;2023-05-10T04:38:47;14.98;;;8.65;;
29686;SDS011;16599;47.078;15.536;2023-05-10T04:41:14;13.52;;;8.23;;
29686;SDS011;16599;47.078;15.536;2023-05-10T04:43:41;14.52;;;8.45;;
29686;SDS011;16599;47.078;15.536;2023-05-10T04:46:08;16.55;;;8.20;;
29686;SDS011;16599;47.078;15.536;2023-05-10T04:48:35;14.88;;;9.10;;
29686;SDS011;16599;47.078;15.536;2023-05-10T04:51:02;14.98;;;12.07;;
29686;SDS011;16599;47.078;15.536;2023-05-10T04:53:30;13.57;;;8.98;;
29686;SDS011;16599;47.078;15.536;2023-05-10T04:55:57;20.50;;;9.27;;
29686;SDS011;16599;47.078;15.536;2023-05-10T04:58:24;15.23;;;8.20;;
29686;SDS011;16599;47.078;15.536;2023-05-10T05:00:51;14.45;;;8.25;;
29686;SDS011;16599;47.078;15.536;2023-05-10T05:03:18;13.45;;;8.55;;
29686;SDS011;16599;47.078;15.536;2023-05-10T05:05:45;15.07;;;9.85;;
29686;SDS011;16599;47.078;15.536;2023-05-10T05:08:12;17.88;;;9.57;;
29686;SDS011;16599;47.078;15.536;2023-05-10T05:10:39;17.85;;;10.38;;
29686;SDS011;16599;47.078;15.536;2023-05-10T05:13:06;15.73;;;9.98;;
29686;SDS011;16599;47.078;15.536;2023-05-10T05:15:33;16.95;;;9.85;;
29686;SDS011;16599;47.078;15.536;2023-05-10T05:18:00;15.32;;;9.32;;
29686;SDS011;16599;47.078;15.536;2023-05-10T05:20:27;16.30;;;8.38;;
29686;SDS011;16599;47.078;15.536;2023-05-10T05:22:53;16.15;;;10.50;;
29686;SDS011;16599;47.078;15.536;2023-05-10T05:25:20;27.08;;;12.50;;
29686;SDS011;16599;47.078;15.536;2023-05-10T05:27:47;16.17;;;8.98;;
29686;SDS011;16599;47.078;15.536;2023-05-10T05:30:14;14.38;;;9.02;;
29686;SDS011;16599;47.078;15.536;2023-05-10T05:32:41;20.27;;;10.85;;
29686;SDS011;16599;47.078;15.536;2023-05-10T05:35:08;24.08;;;10.40;;
29686;SDS011;16599;47.078;15.536;2023-05-10T05:37:36;23.02;;;10.45;;
29686;SDS011;16599;47.078;15.536;2023-05-10T05:40:03;16.48;;;10.02;;
29686;SDS011;16599;47.078;15.536;2023-05-10T05:42:30;17.25;;;10.77;;
29686;SDS011;16599;47.078;15.536;2023-05-10T05:44:58;16.70;;;10.25;;
29686;SDS011;16599;47.078;15.536;2023-05-10T05:47:25;19.48;;;11.00;;
29686;SDS011;16599;47.078;15.536;2023-05-10T05:49:52;17.58;;;10.75;;
29686;SDS011;16599;47.078;15.536;2023-05-10T05:52:18;15.57;;;10.45;;
29686;SDS011;16599;47.078;15.536;2023-05-10T05:54:45;24.10;;;11.48;;
29686;SDS011;16599;47.078;15.536;2023-05-10T05:57:13;19.25;;;12.02;;
29686;SDS011;16599;47.078;15.536;2023-05-10T05:59:40;20.75;;;11.77;;
29686;SDS011;16599;47.078;15.536;2023-05-10T06:02:10;16.90;;;11.30;;
29686;SDS011;16599;47.078;15.536;2023-05-10T06:04:36;17.83;;;11.60;;
29686;SDS011;16599;47.078;15.536;2023-05-10T06:07:04;22.75;;;11.52;;
29686;SDS011;16599;47.078;15.536;2023-05-10T06:09:31;16.05;;;10.48;;
29686;SDS011;16599;47.078;15.536;2023-05-10T06:11:57;16.27;;;10.00;;
29686;SDS011;16599;47.078;15.536;2023-05-10T06:14:24;12.32;;;8.77;;
29686;SDS011;16599;47.078;15.536;2023-05-10T06:16:51;15.93;;;8.57;;
29686;SDS011;16599;47.078;15.536;2023-05-10T06:19:18;13.27;;;8.65;;
29686;SDS011;16599;47.078;15.536;2023-05-10T06:21:45;17.33;;;9.32;;
29686;SDS011;16599;47.078;15.536;2023-05-10T06:24:12;12.35;;;8.23;;
29686;SDS011;16599;47.078;15.536;2023-05-10T06:26:39;13.77;;;8.27;;
29686;SDS011;16599;47.078;15.536;2023-05-10T06:29:07;12.38;;;7.68;;
29686;SDS011;16599;47.078;15.536;2023-05-10T06:31:33;14.60;;;8.45;;
29686;SDS011;16599;47.078;15.536;2023-05-10T06:36:35;13.30;;;8.60;;
29686;SDS011;16599;47.078;15.536;2023-05-10T06:39:02;15.38;;;8.02;;
29686;SDS011;16599;47.078;15.536;2023-05-10T06:41:29;14.27;;;8.52;;
29686;SDS011;16599;47.078;15.536;2023-05-10T06:43:56;11.10;;;7.88;;
29686;SDS011;16599;47.078;15.536;2023-05-10T06:46:23;14.43;;;7.70;;
29686;SDS011;16599;47.078;15.536;2023-05-10T06:48:50;16.35;;;7.43;;
29686;SDS011;16599;47.078;15.536;2023-05-10T06:51:17;12.30;;;7.60;;
29686;SDS011;16599;47.078;15.536;2023-05-10T06:53:44;12.77;;;7.97;;
29686;SDS011;16599;47.078;15.536;2023-05-10T06:56:11;16.48;;;7.82;;
29686;SDS011;16599;47.078;15.536;2023-05-10T06:58:37;12.45;;;7.22;;
29686;SDS011;16599;47.078;15.536;2023-05-10T07:01:04;12.80;;;7.15;;
29686;SDS011;16599;47.078;15.536;2023-05-10T07:03:32;14.15;;;7.22;;
29686;SDS011;16599;47.078;15.536;2023-05-10T07:06:02;10.85;;;6.85;;
29686;SDS011;16599;47.078;15.536;2023-05-10T07:08:33;10.25;;;6.93;;
29686;SDS011;16599;47.078;15.536;2023-05-10T07:11:01;13.73;;;6.18;;
29686;SDS011;16599;47.078;15.536;2023-05-10T07:13:33;14.00;;;6.65;;
29686;SDS011;16599;47.078;15.536;2023-05-10T07:16:00;12.10;;;6.80;;
29686;SDS011;16599;47.078;15.536;2023-05-10T07:18:28;12.48;;;6.78;;
29686;SDS011;16599;47.078;15.536;2023-05-10T07:20:56;11.10;;;7.32;;
29686;SDS011;16599;47.078;15.536;2023-05-10T07:23:23;17.23;;;15.02;;
29686;SDS011;16599;47.078;15.536;2023-05-10T07:25:50;12.27;;;7.55;;
29686;SDS011;16599;47.078;15.536;2023-05-10T07:28:20;10.98;;;6.75;;
29686;SDS011;16599;47.078;15.536;2023-05-10T07:30:47;12.77;;;7.03;;
29686;SDS011;16599;47.078;15.536;2023-05-10T07:33:14;12.32;;;6.75;;
29686;SDS011;16599;47.078;15.536;2023-05-10T07:35:42;10.50;;;6.22;;
29686;SDS011;16599;47.078;15.536;2023-05-10T07:38:09;11.50;;;6.90;;
29686;SDS011;16599;47.078;15.536;2023-05-10T07:40:39;9.15;;;5.88;;
29686;SDS011;16599;47.078;15.536;2023-05-10T07:43:06;9.25;;;5.88;;
29686;SDS011;16599;47.078;15.536;2023-05-10T07:45:33;10.80;;;6.07;;
29686;SDS011;16599;47.078;15.536;2023-05-10T07:48:00;7.10;;;5.28;;
29686;SDS011;16599;47.078;15.536;2023-05-10T07:50:27;10.10;;;5.30;;
29686;SDS011;16599;47.078;15.536;2023-05-10T07:52:54;8.25;;;5.30;;
29686;SDS011;16599;47.078;15.536;2023-05-10T07:55:21;10.25;;;5.93;;
29686;SDS011;16599;47.078;15.536;2023-05-10T07:57:48;8.68;;;5.90;;
29686;SDS011;16599;47.078;15.536;2023-05-10T08:00:19;11.85;;;6.28;;
29686;SDS011;16599;47.078;15.536;2023-05-10T08:02:46;11.32;;;5.63;;
29686;SDS011;16599;47.078;15.536;2023-05-10T08:05:14;12.90;;;5.80;;
29686;SDS011;16599;47.078;15.536;2023-05-10T08:07:41;9.77;;;5.30;;
29686;SDS011;16599;47.078;15.536;2023-05-10T08:10:08;11.95;;;4.78;;
29686;SDS011;16599;47.078;15.536;2023-05-10T08:12:37;23.98;;;13.68;;
29686;SDS011;16599;47.078;15.536;2023-05-10T08:15:04;7.85;;;6.03;;
29686;SDS011;16599;47.078;15.536;2023-05-10T08:17:32;8.18;;;5.55;;
29686;SDS011;16599;47.078;15.536;2023-05-10T08:19:59;9.63;;;5.07;;
29686;SDS011;16599;47.078;15.536;2023-05-10T08:22:26;10.07;;;5.07;;
29686;SDS011;16599;47.078;15.536;2023-05-10T08:24:53;11.27;;;5.82;;
29686;SDS011;16599;47.078;15.536;2023-05-10T08:27:20;7.45;;;5.15;;
29686;SDS011;16599;47.078;15.536;2023-05-10T08:29:47;8.50;;;5.53;;
29686;SDS011;16599;47.078;15.536;2023-05-10T08:32:15;15.65;;;5.40;;
29686;SDS011;16599;47.078;15.536;2023-05-10T08:34:43;9.75;;;5.32;;
29686;SDS011;16599;47.078;15.536;2023-05-10T08:37:10;8.63;;;5.18;;
29686;SDS011;16599;47.078;15.536;2023-05-10T08:39:39;7.93;;;5.15;;
29686;SDS011;16599;47.078;15.536;2023-05-10T08:42:06;9.18;;;5.35;;
29686;SDS011;16599;47.078;15.536;2023-05-10T08:44:35;8.73;;;5.43;;
29686;SDS011;16599;47.078;15.536;2023-05-10T08:47:04;8.65;;;5.20;;
29686;SDS011;16599;47.078;15.536;2023-05-10T08:49:33;9.93;;;5.22;;
29686;SDS011;16599;47.078;15.536;2023-05-10T08:52:02;8.40;;;5.55;;
29686;SDS011;16599;47.078;15.536;2023-05-10T08:54:33;11.70;;;5.72;;
29686;SDS011;16599;47.078;15.536;2023-05-10T08:57:00;14.00;;;5.80;;
29686;SDS011;16599;47.078;15.536;2023-05-10T08:59:28;13.38;;;6.32;;
29686;SDS011;16599;47.078;15.536;2023-05-10T09:01:58;12.90;;;5.85;;
29686;SDS011;16599;47.078;15.536;2023-05-10T09:04:25;7.40;;;5.32;;
29686;SDS011;16599;47.078;15.536;2023-05-10T09:06:53;11.30;;;6.90;;
29686;SDS011;16599;47.078;15.536;2023-05-10T09:09:21;8.25;;;6.15;;
29686;SDS011;16599;47.078;15.536;2023-05-10T09:11:48;8.52;;;5.03;;
29686;SDS011;16599;47.078;15.536;2023-05-10T09:14:15;13.45;;;6.10;;
29686;SDS011;16599;47.078;15.536;2023-05-10T09:16:43;12.07;;;5.05;;
29686;SDS011;16599;47.078;15.536;2023-05-10T09:19:10;14.05;;;5.45;;
29686;SDS011;16599;47.078;15.536;2023-05-10T09:21:37;8.43;;;5.22;;
29686;SDS011;16599;47.078;15.536;2023-05-10T09:24:05;9.90;;;5.18;;
29686;SDS011;16599;47.078;15.536;2023-05-10T09:26:33;7.05;;;5.07;;
29686;SDS011;16599;47.078;15.536;2023-05-10T09:29:02;8.70;;;4.97;;
29686;SDS011;16599;47.078;15.536;2023-05-10T09:31:48;9.07;;;4.82;;
29686;SDS011;16599;47.078;15.536;2023-05-10T09:34:31;8.95;;;5.20;;
29686;SDS011;16599;47.078;15.536;2023-05-10T09:37:01;7.10;;;4.28;;
29686;SDS011;16599;47.078;15.536;2023-05-10T09:39:34;11.20;;;6.15;;
29686;SDS011;16599;47.078;15.536;2023-05-10T09:42:05;8.52;;;5.82;;
29686;SDS011;16599;47.078;15.536;2023-05-10T09:44:35;7.70;;;4.93;;
29686;SDS011;16599;47.078;15.536;2023-05-10T09:47:03;12.38;;;5.13;;
29686;SDS011;16599;47.078;15.536;2023-05-10T09:49:30;6.85;;;4.85;;
29686;SDS011;16599;47.078;15.536;2023-05-10T09:52:01;8.45;;;4.72;;
29686;SDS011;16599;47.078;15.536;2023-05-10T09:54:32;12.90;;;5.03;;
29686;SDS011;16599;47.078;15.536;2023-05-10T09:57:00;11.10;;;5.25;;
29686;SDS011;16599;47.078;15.536;2023-05-10T09:59:27;7.93;;;5.80;;
29686;SDS011;16599;47.078;15.536;2023-05-10T10:01:55;11.63;;;5.15;;
29686;SDS011;16599;47.078;15.536;2023-05-10T10:04:23;8.73;;;5.22;;
29686;SDS011;16599;47.078;15.536;2023-05-10T10:07:00;7.82;;;5.88;;
29686;SDS011;16599;47.078;15.536;2023-05-10T10:09:31;8.73;;;5.07;;
29686;SDS011;16599;47.078;15.536;2023-05-10T10:12:01;9.27;;;5.05;;
29686;SDS011;16599;47.078;15.536;2023-05-10T10:14:29;9.02;;;4.75;;
29686;SDS011;16599;47.078;15.536;2023-05-10T10:16:56;8.20;;;4.55;;
29686;SDS011;16599;47.078;15.536;2023-05-10T10:19:33;9.00;;;5.15;;
29686;SDS011;16599;47.078;15.536;2023-05-10T10:22:02;6.75;;;5.00;;
29686;SDS011;16599;47.078;15.536;2023-05-10T10:24:29;7.13;;;4.57;;
29686;SDS011;16599;47.078;15.536;2023-05-10T10:26:57;7.47;;;5.22;;
29686;SDS011;16599;47.078;15.536;2023-05-10T10:29:36;8.32;;;4.68;;
29686;SDS011;16599;47.078;15.536;2023-05-10T10:32:21;5.55;;;4.70;;
29686;SDS011;16599;47.078;15.536;2023-05-10T10:35:08;8.48;;;4.50;;
29686;SDS011;16599;47.078;15.536;2023-05-10T10:37:46;9.35;;;4.30;;
29686;SDS011;16599;47.078;15.536;2023-05-10T10:40:27;8.93;;;4.55;;
29686;SDS011;16599;47.078;15.536;2023-05-10T10:43:45;9.60;;;4.80;;
29686;SDS011;16599;47.078;15.536;2023-05-10T10:48:41;8.02;;;4.70;;
29686;SDS011;16599;47.078;15.536;2023-05-10T10:51:13;9.88;;;5.13;;
29686;SDS011;16599;47.078;15.536;2023-05-10T10:53:40;7.95;;;5.30;;
29686;SDS011;16599;47.078;15.536;2023-05-10T10:56:12;10.32;;;5.15;;
29686;SDS011;16599;47.078;15.536;2023-05-10T10:58:42;11.98;;;5.07;;
29686;SDS011;16599;47.078;15.536;2023-05-10T11:01:18;9.77;;;5.30;;
29686;SDS011;16599;47.078;15.536;2023-05-10T11:04:16;7.40;;;5.40;;
29686;SDS011;16599;47.078;15.536;2023-05-10T11:06:41;10.23;;;5.68;;
29686;SDS011;16599;47.078;15.536;2023-05-10T11:09:09;7.70;;;5.50;;
29686;SDS011;16599;47.078;15.536;2023-05-10T11:11:53;10.00;;;5.63;;
29686;SDS011;16599;47.078;15.536;2023-05-10T11:14:24;8.10;;;5.70;;
29686;SDS011;16599;47.078;15.536;2023-05-10T11:16:52;7.57;;;4.85;;
29686;SDS011;16599;47.078;15.536;2023-05-10T11:19:19;7.63;;;5.07;;
29686;SDS011;16599;47.078;15.536;2023-05-10T11:24:18;7.57;;;5.05;;
29686;SDS011;16599;47.078;15.536;2023-05-10T11:26:48;7.50;;;5.63;;
29686;SDS011;16599;47.078;15.536;2023-05-10T11:29:16;9.15;;;5.70;;
29686;SDS011;16599;47.078;15.536;2023-05-10T11:31:43;13.25;;;6.13;;
29686;SDS011;16599;47.078;15.536;2023-05-10T11:34:11;12.82;;;6.00;;
29686;SDS011;16599;47.078;15.536;2023-05-10T11:36:52;7.82;;;5.80;;
29686;SDS011;16599;47.078;15.536;2023-05-10T11:39:20;10.07;;;6.32;;
29686;SDS011;16599;47.078;15.536;2023-05-10T11:41:51;9.77;;;5.88;;
29686;SDS011;16599;47.078;15.536;2023-05-10T11:44:18;14.20;;;5.55;;
29686;SDS011;16599;47.078;15.536;2023-05-10T11:46:45;13.07;;;5.50;;
29686;SDS011;16599;47.078;15.536;2023-05-10T11:49:12;7.78;;;5.50;;
29686;SDS011;16599;47.078;15.536;2023-05-10T11:51:39;9.88;;;5.78;;
29686;SDS011;16599;47.078;15.536;2023-05-10T11:54:09;10.80;;;8.40;;
29686;SDS011;16599;47.078;15.536;2023-05-10T11:56:37;8.35;;;5.15;;
29686;SDS011;16599;47.078;15.536;2023-05-10T11:59:05;8.98;;;5.38;;
29686;SDS011;16599;47.078;15.536;2023-05-10T12:01:32;9.43;;;5.90;;
29686;SDS011;16599;47.078;15.536;2023-05-10T12:03:59;7.88;;;6.00;;
29686;SDS011;16599;47.078;15.536;2023-05-10T12:06:28;7.60;;;5.55;;
29686;SDS011;16599;47.078;15.536;2023-05-10T12:08:57;8.07;;;5.63;;
29686;SDS011;16599;47.078;15.536;2023-05-10T12:11:25;7.15;;;5.60;;
29686;SDS011;16599;47.078;15.536;2023-05-10T12:13:53;10.45;;;5.70;;
29686;SDS011;16599;47.078;15.536;2023-05-10T12:16:25;9.18;;;5.75;;
29686;SDS011;16599;47.078;15.536;2023-05-10T12:18:59;8.85;;;5.80;;
29686;SDS011;16599;47.078;15.536;2023-05-10T12:21:27;15.02;;;6.00;;
29686;SDS011;16599;47.078;15.536;2023-05-10T12:24:01;10.45;;;5.47;;
29686;SDS011;16599;47.078;15.536;2023-05-10T12:26:29;10.18;;;5.65;;
29686;SDS011;16599;47.078;15.536;2023-05-10T12:29:13;10.82;;;5.20;;
29686;SDS011;16599;47.078;15.536;2023-05-10T12:31:50;6.88;;;5.25;;
29686;SDS011;16599;47.078;15.536;2023-05-10T12:36:52;7.32;;;4.95;;
29686;SDS011;16599;47.078;15.536;2023-05-10T12:39:19;7.80;;;5.88;;
29686;SDS011;16599;47.078;15.536;2023-05-10T12:41:46;7.43;;;5.35;;
29686;SDS011;16599;47.078;15.536;2023-05-10T12:44:13;7.53;;;5.68;;
29686;SDS011;16599;47.078;15.536;2023-05-10T12:46:40;9.27;;;6.13;;
29686;SDS011;16599;47.078;15.536;2023-05-10T12:49:07;7.10;;;5.00;;
29686;SDS011;16599;47.078;15.536;2023-05-10T12:51:35;7.68;;;5.78;;
29686;SDS011;16599;47.078;15.536;2023-05-10T12:54:02;7.93;;;5.57;;
29686;SDS011;16599;47.078;15.536;2023-05-10T12:56:30;8.77;;;5.38;;
29686;SDS011;16599;47.078;15.536;2023-05-10T12:58:57;8.00;;;5.55;;
29686;SDS011;16599;47.078;15.536;2023-05-10T13:01:24;7.45;;;5.78;;
29686;SDS011;16599;47.078;15.536;2023-05-10T13:03:51;6.25;;;5.07;;
29686;SDS011;16599;47.078;15.536;2023-05-10T13:06:18;7.35;;;4.72;;
29686;SDS011;16599;47.078;15.536;2023-05-10T13:08:45;8.23;;;5.00;;
29686;SDS011;16599;47.078;15.536;2023-05-10T13:11:11;9.80;;;5.70;;
29686;SDS011;16599;47.078;15.536;2023-05-10T13:13:42;7.40;;;5.07;;
29686;SDS011;16599;47.078;15.536;2023-05-10T13:16:09;7.80;;;5.78;;
29686;SDS011;16599;47.078;15.536;2023-05-10T13:18:36;11.95;;;6.25;;
29686;SDS011;16599;47.078;15.536;2023-05-10T13:21:03;9.82;;;5.55;;
29686;SDS011;16599;47.078;15.536;2023-05-10T13:23:31;12.60;;;5.72;;
29686;SDS011;16599;47.078;15.536;2023-05-10T13:25:58;5.95;;;4.85;;
29686;SDS011;16599;47.078;15.536;2023-05-10T13:28:25;9.52;;;5.60;;
29686;SDS011;16599;47.078;15.536;2023-05-10T13:30:52;7.75;;;5.25;;
29686;SDS011;16599;47.078;15.536;2023-05-10T13:33:19;9.77;;;5.45;;
29686;SDS011;16599;47.078;15.536;2023-05-10T13:35:46;10.93;;;5.93;;
29686;SDS011;16599;47.078;15.536;2023-05-10T13:38:13;7.47;;;5.18;;
29686;SDS011;16599;47.078;15.536;2023-05-10T13:40:40;9.13;;;5.22;;
29686;SDS011;16599;47.078;15.536;2023-05-10T13:43:07;6.35;;;4.82;;
29686;SDS011;16599;47.078;15.536;2023-05-10T13:45:34;8.77;;;5.30;;
29686;SDS011;16599;47.078;15.536;2023-05-10T13:48:00;8.15;;;5.28;;
29686;SDS011;16599;47.078;15.536;2023-05-10T13:50:27;5.75;;;4.88;;
29686;SDS011;16599;47.078;15.536;2023-05-10T13:52:54;8.95;;;5.13;;
29686;SDS011;16599;47.078;15.536;2023-05-10T13:55:21;8.90;;;5.22;;
29686;SDS011;16599;47.078;15.536;2023-05-10T13:57:48;11.23;;;5.00;;
29686;SDS011;16599;47.078;15.536;2023-05-10T14:00:15;7.47;;;4.68;;
29686;SDS011;16599;47.078;15.536;2023-05-10T14:02:43;10.00;;;4.95;;
29686;SDS011;16599;47.078;15.536;2023-05-10T14:05:10;6.88;;;5.07;;
29686;SDS011;16599;47.078;15.536;2023-05-10T14:07:38;7.90;;;5.80;;
29686;SDS011;16599;47.078;15.536;2023-05-10T14:10:05;6.93;;;5.25;;
29686;SDS011;16599;47.078;15.536;2023-05-10T14:12:32;8.30;;;5.28;;
29686;SDS011;16599;47.078;15.536;2023-05-10T14:14:59;6.50;;;5.60;;
29686;SDS011;16599;47.078;15.536;2023-05-10T14:17:26;5.80;;;4.85;;
29686;SDS011;16599;47.078;15.536;2023-05-10T14:19:53;10.80;;;5.03;;
29686;SDS011;16599;47.078;15.536;2023-05-10T14:22:20;6.45;;;5.10;;
29686;SDS011;16599;47.078;15.536;2023-05-10T14:24:48;6.25;;;5.10;;
29686;SDS011;16599;47.078;15.536;2023-05-10T14:27:15;7.28;;;5.00;;
29686;SDS011;16599;47.078;15.536;2023-05-10T14:29:42;10.98;;;4.70;;
29686;SDS011;16599;47.078;15.536;2023-05-10T14:32:09;5.90;;;4.80;;
29686;SDS011;16599;47.078;15.536;2023-05-10T14:34:36;6.30;;;4.72;;
29686;SDS011;16599;47.078;15.536;2023-05-10T14:37:03;8.60;;;4.95;;
29686;SDS011;16599;47.078;15.536;2023-05-10T14:39:30;8.18;;;5.32;;
29686;SDS011;16599;47.078;15.536;2023-05-10T14:41:57;9.77;;;5.20;;
29686;SDS011;16599;47.078;15.536;2023-05-10T14:44:24;17.27;;;9.18;;
29686;SDS011;16599;47.078;15.536;2023-05-10T14:46:52;6.45;;;5.10;;
29686;SDS011;16599;47.078;15.536;2023-05-10T14:49:19;7.07;;;4.80;;
29686;SDS011;16599;47.078;15.536;2023-05-10T14:51:48;10.30;;;4.55;;
29686;SDS011;16599;47.078;15.536;2023-05-10T14:54:15;5.47;;;4.32;;
29686;SDS011;16599;47.078;15.536;2023-05-10T14:56:42;5.75;;;4.05;;
29686;SDS011;16599;47.078;15.536;2023-05-10T14:59:09;8.07;;;4.20;;
29686;SDS011;16599;47.078;15.536;2023-05-10T15:01:36;5.15;;;4.65;;
29686;SDS011;16599;47.078;15.536;2023-05-10T15:04:04;4.97;;;4.22;;